Time;durP1;ratioP1;P1;durP2;ratioP2;P2;SDS_P1;SDS_P2;PMS_P1;PMS_P2;Temp;Humidity;BMP_temperature;BMP_pressure;BME280_temperature;BME280_humidity;BME280_pressure;Samples;Min_cycle;Max_cycle;Signal;HPM_P1;HPM_P2
2021/08/26 00:00:58;;;;;;;14.00;3.23;;;14.90;99.90;;;;;;5016165;28;20236;-63
2021/08/26 00:06:16;;;;;;;15.23;3.17;;;14.90;99.90;;;;;;5003445;28;20236;-62
2021/08/26 00:08:47;;;;;;;16.23;4.10;;;15.00;99.90;;;;;;5014965;28;20236;-62
2021/08/26 00:11:19;;;;;;;15.70;3.77;;;14.90;99.90;;;;;;5015748;28;20241;-62
2021/08/26 00:13:48;;;;;;;13.07;3.40;;;14.80;99.90;;;;;;5016834;28;20348;-62
2021/08/26 00:16:18;;;;;;;12.30;3.73;;;14.70;99.90;;;;;;5022854;28;20600;-62
2021/08/26 00:18:46;;;;;;;9.87;3.73;;;14.70;99.90;;;;;;5011057;28;20357;-62
2021/08/26 00:21:15;;;;;;;12.83;3.50;;;14.70;99.90;;;;;;5024835;28;20317;-62
2021/08/26 00:23:43;;;;;;;11.63;3.50;;;14.80;99.90;;;;;;5023883;28;20251;-62
2021/08/26 00:26:12;;;;;;;13.70;3.60;;;14.80;99.90;;;;;;5013395;28;20256;-62
2021/08/26 00:28:41;;;;;;;11.23;3.83;;;14.80;99.90;;;;;;5016399;28;20228;-62
2021/08/26 00:31:09;;;;;;;12.90;3.20;;;14.90;99.90;;;;;;5024963;28;20315;-63
2021/08/26 00:33:38;;;;;;;15.10;3.90;;;15.00;99.90;;;;;;5015159;28;20241;-62
2021/08/26 00:36:06;;;;;;;12.83;3.87;;;15.00;99.90;;;;;;5016826;28;20240;-62
2021/08/26 00:38:35;;;;;;;13.30;3.37;;;15.00;99.90;;;;;;5022288;28;20239;-62
2021/08/26 00:41:03;;;;;;;19.23;4.03;;;14.90;99.90;;;;;;5012398;28;20237;-62
2021/08/26 00:43:32;;;;;;;14.53;3.63;;;14.90;99.90;;;;;;5023731;28;20251;-62
2021/08/26 00:46:02;;;;;;;13.83;4.00;;;14.90;99.90;;;;;;5019408;28;20320;-62
2021/08/26 00:48:30;;;;;;;11.70;3.97;;;14.90;99.90;;;;;;5015588;28;20220;-62
2021/08/26 00:50:59;;;;;;;13.97;3.37;;;14.90;99.90;;;;;;5012324;28;20714;-62
2021/08/26 00:53:27;;;;;;;16.27;3.40;;;14.90;99.90;;;;;;5016959;28;20232;-62
2021/08/26 00:55:57;;;;;;;19.67;4.00;;;15.00;99.90;;;;;;5016595;28;20252;-62
2021/08/26 00:58:25;;;;;;;21.60;4.50;;;15.00;99.90;;;;;;5019915;28;20705;-62
2021/08/26 01:00:59;;;;;;;16.23;4.00;;;15.10;99.90;;;;;;5016988;28;20265;-62
2021/08/26 01:03:39;;;;;;;21.53;4.03;;;15.00;99.90;;;;;;5024272;28;20240;-62
2021/08/26 01:06:13;;;;;;;12.63;3.97;;;15.10;99.90;;;;;;5020595;28;20241;-62
2021/08/26 01:08:51;;;;;;;18.07;4.03;;;15.10;99.90;;;;;;5028486;28;20290;-62
2021/08/26 01:11:23;;;;;;;14.27;3.30;;;15.10;99.90;;;;;;5040556;28;20275;-62
2021/08/26 01:13:53;;;;;;;16.70;3.43;;;15.00;99.90;;;;;;5027666;28;20241;-62
2021/08/26 01:16:21;;;;;;;19.27;3.87;;;15.10;99.90;;;;;;5015257;28;20268;-62
2021/08/26 01:18:51;;;;;;;13.87;3.70;;;15.10;99.90;;;;;;5020001;28;20233;-62
2021/08/26 01:21:21;;;;;;;21.70;4.33;;;15.10;99.90;;;;;;5021557;28;20232;-62
2021/08/26 01:23:52;;;;;;;16.93;3.43;;;15.10;99.90;;;;;;5015520;28;20247;-62
2021/08/26 01:26:25;;;;;;;14.40;3.67;;;15.20;99.90;;;;;;5022640;28;20244;-62
2021/08/26 01:28:54;;;;;;;16.37;3.37;;;15.10;99.90;;;;;;5013077;28;20359;-62
2021/08/26 01:31:23;;;;;;;13.53;3.83;;;15.30;99.90;;;;;;5017105;28;20253;-62
2021/08/26 01:33:54;;;;;;;16.17;4.07;;;15.30;99.90;;;;;;5016741;28;20721;-62
2021/08/26 01:36:25;;;;;;;16.93;3.60;;;15.30;99.90;;;;;;5024093;28;20233;-62
2021/08/26 01:38:53;;;;;;;14.87;3.70;;;15.30;99.90;;;;;;5009970;28;20287;-62
2021/08/26 01:41:38;;;;;;;14.90;3.70;;;15.10;99.90;;;;;;5020079;28;20336;-62
2021/08/26 01:44:06;;;;;;;20.13;4.40;;;15.20;99.90;;;;;;5021112;28;20268;-62
2021/08/26 01:46:34;;;;;;;15.77;4.20;;;15.20;99.90;;;;;;5018765;28;20600;-62
2021/08/26 01:49:03;;;;;;;15.80;4.90;;;15.20;99.90;;;;;;5017387;28;20236;-62
2021/08/26 01:51:31;;;;;;;18.23;4.00;;;15.00;99.90;;;;;;5015285;28;20237;-62
2021/08/26 01:53:59;;;;;;;18.27;4.23;;;15.00;99.90;;;;;;5024468;28;20260;-62
2021/08/26 01:56:28;;;;;;;17.50;3.63;;;14.80;99.90;;;;;;5017965;28;20228;-62
2021/08/26 01:58:57;;;;;;;16.80;3.80;;;14.80;99.90;;;;;;5015481;28;20266;-62
2021/08/26 02:01:25;;;;;;;14.27;4.30;;;14.70;99.90;;;;;;5024986;28;20233;-62
2021/08/26 02:03:53;;;;;;;15.27;3.23;;;14.70;99.90;;;;;;5023053;28;20237;-62
2021/08/26 02:06:21;;;;;;;12.70;3.40;;;14.80;99.90;;;;;;5021710;28;20233;-62
2021/08/26 02:08:49;;;;;;;18.90;4.13;;;14.80;99.90;;;;;;5021223;28;20332;-62
2021/08/26 02:11:18;;;;;;;16.87;4.17;;;14.60;99.90;;;;;;5013541;28;20224;-62
2021/08/26 02:13:50;;;;;;;18.77;4.40;;;14.50;99.90;;;;;;5023938;28;20268;-62
2021/08/26 02:16:18;;;;;;;11.17;3.30;;;14.50;99.90;;;;;;5014327;28;20260;-62
2021/08/26 02:18:46;;;;;;;14.40;3.80;;;14.50;99.90;;;;;;5018118;28;20303;-62
2021/08/26 02:21:14;;;;;;;16.07;3.77;;;14.60;99.90;;;;;;5022489;28;20290;-62
2021/08/26 02:23:42;;;;;;;16.53;3.83;;;14.70;99.90;;;;;;5023598;28;20252;-62
2021/08/26 02:26:12;;;;;;;14.93;3.50;;;14.90;99.90;;;;;;5020749;28;20320;-62
2021/08/26 02:28:40;;;;;;;15.73;4.03;;;14.80;99.90;;;;;;5022786;28;20231;-62
2021/08/26 02:31:09;;;;;;;18.57;3.63;;;14.80;99.90;;;;;;5023619;28;20237;-62
2021/08/26 02:33:37;;;;;;;21.20;4.00;;;14.80;99.90;;;;;;5024673;28;20240;-62
2021/08/26 02:36:05;;;;;;;21.60;4.03;;;14.60;99.90;;;;;;5019475;28;20717;-62
2021/08/26 02:38:33;;;;;;;15.47;4.00;;;14.60;99.90;;;;;;5024974;28;20233;-62
2021/08/26 02:41:02;;;;;;;16.37;3.83;;;14.60;99.90;;;;;;5051360;28;20259;-62
2021/08/26 02:43:30;;;;;;;14.73;3.37;;;14.50;99.90;;;;;;5053377;28;20228;-62
2021/08/26 02:45:58;;;;;;;15.30;4.07;;;14.40;99.90;;;;;;5056095;28;20236;-62
2021/08/26 02:48:27;;;;;;;17.63;4.10;;;14.60;99.90;;;;;;5050599;28;20315;-62
2021/08/26 02:50:56;;;;;;;16.57;3.77;;;14.50;99.90;;;;;;5048089;28;20240;-62
2021/08/26 02:53:24;;;;;;;16.97;3.60;;;14.50;99.90;;;;;;5056361;28;20581;-62
2021/08/26 02:55:52;;;;;;;18.23;4.07;;;14.50;99.90;;;;;;5052261;28;20782;-62
2021/08/26 02:58:20;;;;;;;15.07;3.50;;;14.40;99.90;;;;;;5048685;28;20228;-62
2021/08/26 03:01:05;;;;;;;12.46;3.45;;;14.40;99.90;;;;;;2261548;28;10023742;-62
2021/08/26 03:03:35;;;;;;;14.73;3.60;;;14.40;99.90;;;;;;4359731;28;10001476;-62
2021/08/26 03:06:04;;;;;;;18.70;3.43;;;14.40;99.90;;;;;;5051800;28;20708;-62
2021/08/26 03:08:34;;;;;;;14.27;4.00;;;14.50;99.90;;;;;;5048745;28;20333;-62
2021/08/26 03:11:02;;;;;;;12.13;3.30;;;14.50;99.90;;;;;;5050135;28;20239;-62
2021/08/26 03:13:30;;;;;;;15.33;3.47;;;14.40;99.90;;;;;;5052280;28;20244;-62
2021/08/26 03:15:58;;;;;;;11.40;3.27;;;14.40;99.90;;;;;;5053267;28;20255;-62
2021/08/26 03:18:26;;;;;;;12.00;3.50;;;14.40;99.90;;;;;;5055953;28;20235;-62
2021/08/26 03:20:56;;;;;;;9.03;2.83;;;14.30;99.90;;;;;;5053366;28;20238;-62
2021/08/26 03:23:24;;;;;;;16.53;3.57;;;14.20;99.90;;;;;;5047344;28;20285;-62
2021/08/26 03:25:53;;;;;;;15.77;4.30;;;14.20;99.90;;;;;;5055938;28;20235;-62
2021/08/26 03:28:21;;;;;;;16.83;3.53;;;14.10;99.90;;;;;;5055637;28;20319;-62
2021/08/26 03:30:49;;;;;;;14.57;3.70;;;14.30;99.90;;;;;;5054583;28;20235;-62
2021/08/26 03:33:18;;;;;;;16.97;4.10;;;14.40;99.90;;;;;;5046646;28;20254;-62
2021/08/26 03:35:48;;;;;;;11.83;3.30;;;14.40;99.90;;;;;;5058151;28;20226;-62
2021/08/26 03:38:18;;;;;;;13.97;3.10;;;14.40;99.90;;;;;;5042499;28;20251;-62
2021/08/26 03:40:47;;;;;;;13.17;3.63;;;14.40;99.90;;;;;;5047555;28;20719;-62
2021/08/26 03:43:15;;;;;;;11.90;3.60;;;14.30;99.90;;;;;;5056137;28;20599;-62
2021/08/26 03:45:43;;;;;;;11.17;3.77;;;14.30;99.90;;;;;;5053754;28;20716;-62
2021/08/26 03:48:11;;;;;;;13.20;3.33;;;14.50;99.90;;;;;;5053124;28;20317;-62
2021/08/26 03:50:39;;;;;;;14.40;3.40;;;14.40;99.90;;;;;;5053219;28;20247;-62
2021/08/26 03:53:07;;;;;;;12.83;3.70;;;14.40;99.90;;;;;;5052889;28;20703;-62
2021/08/26 03:55:37;;;;;;;14.17;3.43;;;14.40;99.90;;;;;;5050959;28;20712;-62
2021/08/26 03:58:05;;;;;;;12.13;3.20;;;14.50;99.90;;;;;;5056022;28;20666;-62
2021/08/26 04:00:33;;;;;;;11.43;3.53;;;14.40;99.90;;;;;;5051758;28;20720;-62
2021/08/26 04:03:01;;;;;;;15.00;3.93;;;14.40;99.90;;;;;;5049241;28;20733;-62
2021/08/26 04:05:29;;;;;;;15.87;4.23;;;14.30;99.90;;;;;;5048568;28;20234;-62
2021/08/26 04:07:57;;;;;;;13.13;3.93;;;14.30;99.90;;;;;;5049592;28;20364;-61
2021/08/26 04:10:26;;;;;;;13.00;3.20;;;14.20;99.90;;;;;;5045033;28;20309;-61
2021/08/26 04:12:56;;;;;;;13.03;3.33;;;14.30;99.90;;;;;;5045306;28;20632;-62
2021/08/26 04:15:24;;;;;;;16.37;3.77;;;14.40;99.90;;;;;;5044450;28;20634;-62
2021/08/26 04:17:52;;;;;;;15.57;4.17;;;14.40;99.90;;;;;;5045199;28;20683;-62
2021/08/26 04:20:21;;;;;;;17.87;3.93;;;14.40;99.90;;;;;;5050235;28;20654;-62
2021/08/26 04:22:52;;;;;;;18.33;4.63;;;14.50;99.90;;;;;;5053813;28;20234;-62
2021/08/26 04:25:21;;;;;;;14.93;4.53;;;14.40;99.90;;;;;;5043961;28;20235;-62
2021/08/26 04:27:49;;;;;;;12.80;3.83;;;14.60;99.90;;;;;;5052798;28;20228;-62
2021/08/26 04:30:19;;;;;;;11.83;3.40;;;14.70;99.90;;;;;;5041389;28;20236;-62
2021/08/26 04:32:47;;;;;;;16.27;3.80;;;14.70;99.90;;;;;;5051873;28;20474;-62
2021/08/26 04:35:15;;;;;;;14.43;4.37;;;14.60;99.90;;;;;;5043794;28;20278;-62
2021/08/26 04:37:43;;;;;;;15.87;4.70;;;14.50;99.90;;;;;;5050408;28;20228;-62
2021/08/26 04:40:12;;;;;;;11.93;4.20;;;14.50;99.90;;;;;;5050479;28;20259;-62
2021/08/26 04:42:40;;;;;;;15.43;4.13;;;14.60;99.90;;;;;;5052552;28;20240;-62
2021/08/26 04:45:09;;;;;;;14.47;3.93;;;14.50;99.90;;;;;;5055011;28;20775;-62
2021/08/26 04:47:39;;;;;;;17.03;4.43;;;14.40;99.90;;;;;;5054220;28;20246;-62
2021/08/26 04:50:07;;;;;;;16.60;4.53;;;14.40;99.90;;;;;;5050691;28;20273;-62
2021/08/26 04:52:36;;;;;;;13.87;3.83;;;14.30;99.90;;;;;;5046285;28;20238;-62
2021/08/26 04:55:04;;;;;;;19.57;4.63;;;14.20;99.90;;;;;;5044142;28;20776;-62
2021/08/26 04:57:33;;;;;;;15.23;3.90;;;14.20;99.90;;;;;;5032073;28;20252;-62
2021/08/26 05:00:01;;;;;;;14.57;4.60;;;14.20;99.90;;;;;;5044058;28;20363;-62
2021/08/26 05:02:29;;;;;;;19.40;4.43;;;14.10;99.90;;;;;;5039762;28;20236;-62
2021/08/26 05:04:59;;;;;;;13.57;4.23;;;14.20;99.90;;;;;;5046187;28;20243;-62
2021/08/26 05:07:27;;;;;;;16.40;3.90;;;14.20;99.90;;;;;;5042677;28;20263;-62
2021/08/26 05:09:55;;;;;;;15.83;4.40;;;14.30;99.90;;;;;;5044914;28;20251;-62
2021/08/26 05:12:23;;;;;;;15.60;3.93;;;14.30;99.90;;;;;;5041989;28;20319;-62
2021/08/26 05:14:51;;;;;;;14.47;4.57;;;14.30;99.90;;;;;;5040993;28;20239;-62
2021/08/26 05:17:19;;;;;;;16.63;4.10;;;14.30;99.90;;;;;;5045478;28;20715;-62
2021/08/26 05:19:47;;;;;;;20.10;5.13;;;14.40;99.90;;;;;;5039420;28;20242;-62
2021/08/26 05:22:17;;;;;;;17.17;5.07;;;14.40;99.90;;;;;;5041364;28;20522;-62
2021/08/26 05:24:47;;;;;;;18.53;4.87;;;14.50;99.90;;;;;;5037462;28;20266;-62
2021/08/26 05:27:15;;;;;;;15.53;4.33;;;14.50;99.90;;;;;;5046062;28;20227;-62
2021/08/26 05:29:44;;;;;;;16.90;3.93;;;14.50;99.90;;;;;;5037781;28;20915;-62
2021/08/26 05:32:13;;;;;;;16.37;4.60;;;14.50;99.90;;;;;;5044142;28;20236;-62
2021/08/26 05:34:42;;;;;;;18.77;4.23;;;14.40;99.90;;;;;;5041313;28;20655;-62
2021/08/26 05:37:10;;;;;;;19.80;4.40;;;14.40;99.90;;;;;;5043882;28;20232;-62
2021/08/26 05:39:39;;;;;;;16.80;4.70;;;14.40;99.90;;;;;;5046989;28;20236;-62
2021/08/26 05:42:07;;;;;;;13.13;4.30;;;14.60;99.90;;;;;;5045876;28;20240;-62
2021/08/26 05:44:36;;;;;;;12.83;3.87;;;14.60;99.90;;;;;;5046453;28;20271;-62
2021/08/26 05:47:04;;;;;;;18.37;4.37;;;14.60;99.90;;;;;;5040456;28;20236;-62
2021/08/26 05:49:32;;;;;;;18.70;4.40;;;14.60;99.90;;;;;;5036921;28;20250;-62
2021/08/26 05:52:01;;;;;;;20.97;5.03;;;14.60;99.90;;;;;;5041499;28;20331;-62
2021/08/26 05:54:29;;;;;;;12.53;3.93;;;14.60;99.90;;;;;;5039877;28;20297;-62
2021/08/26 05:56:59;;;;;;;19.60;4.60;;;14.60;99.90;;;;;;5044053;28;20239;-62
2021/08/26 05:59:27;;;;;;;18.03;4.27;;;14.60;99.90;;;;;;5047831;28;20243;-62
2021/08/26 06:01:56;;;;;;;16.67;4.50;;;14.60;99.90;;;;;;5043179;28;20323;-62
2021/08/26 06:04:24;;;;;;;15.97;4.47;;;14.70;99.90;;;;;;5039584;28;20235;-62
2021/08/26 06:06:52;;;;;;;16.97;4.10;;;14.90;99.90;;;;;;5044728;28;20232;-62
2021/08/26 06:09:20;;;;;;;18.67;4.50;;;14.90;99.90;;;;;;5037287;28;20319;-62
2021/08/26 06:11:49;;;;;;;16.37;4.13;;;15.10;99.90;;;;;;5043643;28;20231;-62
2021/08/26 06:14:18;;;;;;;16.73;4.10;;;15.00;99.90;;;;;;5044527;28;20328;-62
2021/08/26 06:16:46;;;;;;;15.07;4.30;;;15.20;99.90;;;;;;5036350;28;20600;-62
2021/08/26 06:19:14;;;;;;;16.23;4.20;;;15.20;99.90;;;;;;5044379;28;20668;-62
2021/08/26 06:21:42;;;;;;;19.43;4.47;;;15.20;99.90;;;;;;5037016;28;20239;-62
2021/08/26 06:24:10;;;;;;;17.10;4.10;;;15.20;99.90;;;;;;5044089;28;20297;-62
2021/08/26 06:26:39;;;;;;;20.77;4.20;;;15.20;99.90;;;;;;5045473;28;20255;-62
2021/08/26 06:29:07;;;;;;;16.63;4.70;;;15.20;99.90;;;;;;5047033;28;20330;-62
2021/08/26 06:31:36;;;;;;;19.57;4.57;;;15.10;99.90;;;;;;5046828;28;20224;-62
2021/08/26 06:34:04;;;;;;;15.90;4.53;;;15.10;99.90;;;;;;5046779;28;20250;-62
2021/08/26 06:36:32;;;;;;;18.87;4.33;;;15.10;99.90;;;;;;5046120;28;20232;-62
2021/08/26 06:39:01;;;;;;;20.97;4.07;;;15.10;99.90;;;;;;5045370;28;20607;-62
2021/08/26 06:41:29;;;;;;;18.57;3.87;;;15.10;99.90;;;;;;5047441;28;20235;-63
2021/08/26 06:43:57;;;;;;;19.40;4.60;;;15.00;99.90;;;;;;5038827;28;20243;-62
2021/08/26 06:46:25;;;;;;;18.87;4.80;;;15.10;99.90;;;;;;5033084;28;20247;-62
2021/08/26 06:48:56;;;;;;;14.93;4.23;;;15.10;99.90;;;;;;5032326;28;20235;-62
2021/08/26 06:51:24;;;;;;;19.83;4.40;;;15.10;99.90;;;;;;5027819;28;20664;-62
2021/08/26 06:53:52;;;;;;;14.23;4.00;;;15.20;99.90;;;;;;5027484;28;20235;-62
2021/08/26 06:56:20;;;;;;;15.97;3.33;;;15.20;99.90;;;;;;5045162;28;20254;-62
2021/08/26 06:58:49;;;;;;;14.90;3.50;;;15.20;99.90;;;;;;5040052;28;20228;-62
2021/08/26 07:01:17;;;;;;;16.17;3.47;;;15.30;99.90;;;;;;5044570;28;20228;-62
2021/08/26 07:03:45;;;;;;;14.37;3.40;;;15.30;99.90;;;;;;5042304;28;20326;-62
2021/08/26 07:06:16;;;;;;;10.60;2.87;;;15.40;99.90;;;;;;5045782;28;20765;-62
2021/08/26 07:08:44;;;;;;;9.03;2.60;;;15.40;99.90;;;;;;5044003;28;20715;-62
2021/08/26 07:11:12;;;;;;;9.93;2.87;;;15.30;99.90;;;;;;5045054;28;20236;-62
2021/08/26 07:13:40;;;;;;;12.13;2.90;;;15.40;99.90;;;;;;5045053;28;20232;-62
2021/08/26 07:16:08;;;;;;;9.93;2.30;;;15.40;99.90;;;;;;5045791;28;20240;-62
2021/08/26 07:18:37;;;;;;;9.23;2.93;;;15.50;99.90;;;;;;5044880;28;20323;-63
2021/08/26 07:21:05;;;;;;;16.17;2.93;;;15.50;99.90;;;;;;5045849;28;20248;-62
2021/08/26 07:23:36;;;;;;;11.30;2.50;;;15.50;99.90;;;;;;5042762;28;20657;-62
2021/08/26 07:26:05;;;;;;;9.37;2.37;;;15.50;99.90;;;;;;5043887;28;20278;-62
2021/08/26 07:28:33;;;;;;;6.40;2.17;;;15.50;99.90;;;;;;5044388;28;20385;-62
2021/08/26 07:31:01;;;;;;;8.40;2.63;;;15.50;99.90;;;;;;5043422;28;20236;-62
2021/08/26 07:33:29;;;;;;;9.10;2.30;;;15.50;99.90;;;;;;5043222;28;20246;-63
2021/08/26 07:35:59;;;;;;;7.60;2.47;;;15.50;99.90;;;;;;5042729;28;20259;-62
2021/08/26 07:38:30;;;;;;;10.50;2.50;;;15.50;99.90;;;;;;5045196;28;20322;-62
2021/08/26 07:40:59;;;;;;;6.37;2.20;;;15.60;99.90;;;;;;5045476;28;20235;-62
2021/08/26 07:43:36;;;;;;;9.33;2.03;;;15.60;99.90;;;;;;5029809;28;20247;-62
2021/08/26 07:46:04;;;;;;;7.67;2.13;;;15.70;99.90;;;;;;5039445;28;20262;-63
2021/08/26 07:48:34;;;;;;;7.40;2.37;;;15.70;99.90;;;;;;5047002;28;20240;-62
2021/08/26 07:51:03;;;;;;;9.83;2.40;;;15.60;99.90;;;;;;5048127;28;20653;-62
2021/08/26 07:53:32;;;;;;;8.00;2.17;;;15.70;99.90;;;;;;5045419;28;20459;-62
2021/08/26 07:56:02;;;;;;;9.90;2.30;;;15.80;99.90;;;;;;5037673;28;20635;-62
2021/08/26 07:58:31;;;;;;;7.83;2.30;;;15.80;99.90;;;;;;5033202;28;20267;-63
2021/08/26 08:01:00;;;;;;;7.47;2.20;;;15.80;99.90;;;;;;5034126;28;20267;-62
2021/08/26 08:03:32;;;;;;;8.63;2.33;;;15.80;99.90;;;;;;5032568;28;20689;-62
2021/08/26 08:06:02;;;;;;;7.60;1.93;;;15.80;99.90;;;;;;5011869;28;20319;-62
2021/08/26 08:08:31;;;;;;;8.20;2.17;;;15.80;99.90;;;;;;5011967;28;20263;-62
2021/08/26 08:10:59;;;;;;;9.90;2.20;;;15.90;99.90;;;;;;5016239;28;20311;-62
2021/08/26 08:13:33;;;;;;;7.67;2.00;;;16.20;99.90;;;;;;5013862;28;20244;-61
2021/08/26 08:16:03;;;;;;;8.00;2.40;;;16.50;99.90;;;;;;5017263;28;20731;-62
2021/08/26 08:18:32;;;;;;;6.43;2.00;;;16.80;99.90;;;;;;5018910;28;20245;-62
2021/08/26 08:21:02;;;;;;;8.03;1.97;;;16.90;99.90;;;;;;5014550;28;21663;-63
2021/08/26 08:23:30;;;;;;;7.07;2.13;;;17.00;99.90;;;;;;5010201;28;20708;-62
2021/08/26 08:25:58;;;;;;;8.23;1.90;;;17.00;99.90;;;;;;5012867;28;20252;-63
2021/08/26 08:28:28;;;;;;;9.03;1.77;;;17.00;99.90;;;;;;5013868;28;20628;-63
2021/08/26 08:30:58;;;;;;;9.67;2.10;;;16.80;99.90;;;;;;5016604;28;20662;-62
2021/08/26 08:33:26;;;;;;;6.83;1.93;;;16.70;99.90;;;;;;5011629;28;20243;-62
2021/08/26 08:35:54;;;;;;;7.87;2.10;;;16.50;99.90;;;;;;5013689;28;20587;-63
2021/08/26 08:38:22;;;;;;;8.00;1.83;;;16.30;99.90;;;;;;5015789;28;20225;-62
2021/08/26 08:40:50;;;;;;;4.03;1.70;;;16.30;99.90;;;;;;5013605;28;20259;-62
2021/08/26 08:43:18;;;;;;;7.10;1.83;;;16.20;99.90;;;;;;5013452;28;20232;-62
2021/08/26 08:45:47;;;;;;;8.30;1.70;;;16.20;99.90;;;;;;5013477;28;20279;-63
2021/08/26 08:48:17;;;;;;;5.00;1.67;;;16.00;99.90;;;;;;5014142;28;20246;-62
2021/08/26 08:50:46;;;;;;;7.27;1.57;;;16.00;99.90;;;;;;5011521;28;20617;-63
2021/08/26 08:53:15;;;;;;;7.73;1.90;;;15.90;99.90;;;;;;5010437;28;20279;-62
2021/08/26 08:55:44;;;;;;;6.60;1.57;;;15.90;99.90;;;;;;5012118;28;20655;-62
2021/08/26 08:58:13;;;;;;;7.93;1.70;;;15.90;99.90;;;;;;5014649;28;20241;-63
2021/08/26 09:00:41;;;;;;;6.90;1.60;;;16.00;99.90;;;;;;5013213;28;20265;-62
2021/08/26 09:03:10;;;;;;;4.23;1.23;;;16.00;99.90;;;;;;5013227;28;20248;-63
2021/08/26 09:05:54;;;;;;;4.47;1.30;;;15.90;99.90;;;;;;5013810;28;20619;-62
2021/08/26 09:08:23;;;;;;;5.23;1.40;;;16.00;99.90;;;;;;5014976;28;21006;-63
2021/08/26 09:10:54;;;;;;;6.90;1.67;;;16.20;99.90;;;;;;5010517;28;20496;-62
2021/08/26 09:13:32;;;;;;;7.00;1.17;;;16.40;99.90;;;;;;5015100;28;20257;-62
2021/08/26 09:16:02;;;;;;;4.03;1.47;;;16.60;99.90;;;;;;5015034;28;20323;-63
2021/08/26 09:18:31;;;;;;;5.80;1.27;;;16.80;99.90;;;;;;5016191;28;20240;-62
2021/08/26 09:21:04;;;;;;;5.30;1.50;;;17.10;99.90;;;;;;5014472;28;20239;-62
2021/08/26 09:23:35;;;;;;;6.03;1.33;;;17.30;99.90;;;;;;5012580;28;20336;-62
2021/08/26 09:26:18;;;;;;;4.70;1.23;;;17.40;99.90;;;;;;5012923;28;20286;-63
2021/08/26 09:28:46;;;;;;;4.67;1.30;;;17.60;99.90;;;;;;5013256;28;20762;-63
2021/08/26 09:31:18;;;;;;;4.43;1.10;;;17.80;99.90;;;;;;5014511;28;20236;-62
2021/08/26 09:33:54;;;;;;;6.27;1.60;;;17.90;99.90;;;;;;5010299;28;20252;-62
2021/08/26 09:36:27;;;;;;;5.87;1.33;;;18.20;99.90;;;;;;5007314;28;20359;-62
2021/08/26 09:38:58;;;;;;;8.13;1.20;;;18.50;99.90;;;;;;5013673;28;20272;-62
2021/08/26 09:41:45;;;;;;;4.47;1.30;;;18.60;99.90;;;;;;5011961;28;20241;-62
2021/08/26 09:44:15;;;;;;;6.90;1.30;;;18.70;99.90;;;;;;5008293;28;20757;-62
2021/08/26 09:46:47;;;;;;;5.30;1.10;;;18.90;99.90;;;;;;5009175;28;20585;-62
2021/08/26 09:49:16;;;;;;;4.47;1.17;;;19.30;99.90;;;;;;5013103;28;20242;-62
2021/08/26 09:52:01;;;;;;;5.13;0.97;;;19.40;99.90;;;;;;5008575;28;20240;-62
2021/08/26 09:54:32;;;;;;;4.37;1.03;;;19.90;99.90;;;;;;5012932;28;20321;-62
2021/08/26 09:57:01;;;;;;;5.33;1.00;;;20.60;99.90;;;;;;5034541;28;20322;-62
2021/08/26 09:59:46;;;;;;;5.10;1.10;;;20.90;99.90;;;;;;5033728;28;20698;-62
2021/08/26 10:02:16;;;;;;;2.50;0.90;;;21.00;99.90;;;;;;5031499;28;21629;-62
2021/08/26 10:04:44;;;;;;;5.57;0.90;;;21.10;99.90;;;;;;5033503;28;20253;-62
2021/08/26 10:07:14;;;;;;;3.90;0.87;;;21.10;99.90;;;;;;5034426;28;20277;-62
2021/08/26 10:09:43;;;;;;;5.67;1.00;;;20.80;99.90;;;;;;5033879;28;20318;-62
2021/08/26 10:12:13;;;;;;;4.37;0.97;;;20.70;99.90;;;;;;5031489;28;20343;-62
2021/08/26 10:14:43;;;;;;;4.70;0.87;;;20.40;99.90;;;;;;5033493;28;20356;-62
2021/08/26 10:17:12;;;;;;;5.53;1.53;;;20.20;99.90;;;;;;5033214;28;20239;-62
2021/08/26 10:19:41;;;;;;;6.90;1.00;;;19.80;99.90;;;;;;5030852;28;20258;-62
2021/08/26 10:22:09;;;;;;;5.80;1.10;;;19.50;99.90;;;;;;5030452;28;21013;-62
2021/08/26 10:24:39;;;;;;;5.17;1.30;;;19.10;99.90;;;;;;5031579;28;20774;-62
2021/08/26 10:27:10;;;;;;;2.73;0.70;;;19.40;99.90;;;;;;5032828;28;20243;-62
2021/08/26 10:29:43;;;;;;;5.13;1.00;;;19.20;99.90;;;;;;5032140;28;20352;-62
2021/08/26 10:32:17;;;;;;;3.47;0.83;;;19.60;99.90;;;;;;5027737;28;20246;-62
2021/08/26 10:35:04;;;;;;;2.40;0.63;;;20.10;99.90;;;;;;5031144;28;20271;-62
2021/08/26 10:37:48;;;;;;;3.13;0.93;;;20.70;99.90;;;;;;5031208;28;20290;-62
2021/08/26 10:40:32;;;;;;;3.17;0.90;;;20.40;99.90;;;;;;5031983;28;21318;-62
2021/08/26 10:43:02;;;;;;;2.80;0.80;;;19.70;99.90;;;;;;5028358;28;20246;-62
2021/08/26 10:45:45;;;;;;;2.53;0.73;;;19.40;99.90;;;;;;5031713;28;20237;-62
2021/08/26 10:48:22;;;;;;;2.17;0.60;;;19.00;99.90;;;;;;5018406;28;20243;-62
2021/08/26 10:51:08;;;;;;;3.63;0.70;;;18.60;99.90;;;;;;5011321;28;20537;-62
2021/08/26 10:53:38;;;;;;;0.70;0.50;;;18.30;99.90;;;;;;5006488;28;20331;-62
2021/08/26 10:56:23;;;;;;;3.40;0.77;;;18.50;99.90;;;;;;5008496;28;20247;-62
2021/08/26 10:58:53;;;;;;;1.77;0.50;;;18.30;99.90;;;;;;5012064;28;20788;-62
2021/08/26 11:01:39;;;;;;;3.83;0.80;;;18.30;99.90;;;;;;5012288;28;20276;-63
2021/08/26 11:04:20;;;;;;;4.73;0.80;;;18.30;99.90;;;;;;5016786;28;20777;-62
2021/08/26 11:06:50;;;;;;;2.27;0.67;;;18.40;99.90;;;;;;5011461;28;20304;-62
2021/08/26 11:09:35;;;;;;;3.53;0.63;;;18.70;99.90;;;;;;5013391;28;20247;-62
2021/08/26 11:12:25;;;;;;;4.37;0.70;;;18.80;99.90;;;;;;5007538;28;20348;-62
2021/08/26 11:14:54;;;;;;;3.73;0.93;;;18.70;99.90;;;;;;5009222;28;20234;-62
2021/08/26 11:17:37;;;;;;;2.87;0.50;;;18.60;99.90;;;;;;5011220;28;20463;-62
2021/08/26 11:20:30;;;;;;;2.97;0.73;;;18.40;99.90;;;;;;5022253;28;20687;-62
2021/08/26 11:23:13;;;;;;;2.20;0.53;;;18.30;99.90;;;;;;5019549;28;20278;-62
2021/08/26 11:25:43;;;;;;;2.50;0.77;;;18.30;99.90;;;;;;5016825;28;20337;-62
2021/08/26 11:28:32;;;;;;;2.10;0.67;;;18.50;99.90;;;;;;5012291;28;20239;-62
2021/08/26 11:31:21;;;;;;;1.57;0.67;;;18.50;99.90;;;;;;5002592;28;20251;-62
2021/08/26 11:33:50;;;;;;;2.10;0.60;;;18.70;99.90;;;;;;5018784;28;20761;-62
2021/08/26 11:36:20;;;;;;;1.63;0.80;;;18.70;99.90;;;;;;5003324;28;20571;-62
2021/08/26 11:38:54;;;;;;;2.33;0.70;;;18.70;99.90;;;;;;5010579;28;20324;-62
2021/08/26 11:41:22;;;;;;;1.33;0.57;;;18.80;99.90;;;;;;5009449;28;20333;-62
2021/08/26 11:43:52;;;;;;;3.80;0.60;;;18.80;99.90;;;;;;5008027;28;20234;-62
2021/08/26 11:46:21;;;;;;;3.87;0.73;;;18.70;99.90;;;;;;5011113;28;20378;-63
2021/08/26 11:48:52;;;;;;;1.50;0.60;;;18.60;99.90;;;;;;5011447;28;20598;-62
2021/08/26 11:51:26;;;;;;;2.73;0.77;;;18.60;99.90;;;;;;5009199;28;20265;-62
2021/08/26 11:53:54;;;;;;;2.43;0.60;;;18.60;99.90;;;;;;5021139;28;20229;-62
2021/08/26 11:56:22;;;;;;;2.23;0.60;;;18.50;99.90;;;;;;5023707;28;20716;-62
2021/08/26 11:58:52;;;;;;;2.70;0.63;;;18.50;99.90;;;;;;5020113;28;20664;-62
2021/08/26 12:01:27;;;;;;;1.90;0.53;;;18.50;99.90;;;;;;5020480;28;20817;-62
2021/08/26 12:03:58;;;;;;;1.97;0.87;;;18.70;99.90;;;;;;5022329;28;20705;-62
2021/08/26 12:06:26;;;;;;;1.63;0.70;;;18.80;99.90;;;;;;5021274;28;20831;-62
2021/08/26 12:08:56;;;;;;;3.67;0.70;;;18.70;99.90;;;;;;5023447;28;20243;-62
2021/08/26 12:11:28;;;;;;;3.20;0.70;;;18.90;99.90;;;;;;5026052;28;20238;-62
2021/08/26 12:14:08;;;;;;;2.90;0.50;;;18.70;99.90;;;;;;5027367;28;20247;-62
2021/08/26 12:16:38;;;;;;;2.50;0.90;;;18.60;99.90;;;;;;5028873;28;20264;-62
2021/08/26 12:19:06;;;;;;;2.47;0.60;;;18.40;99.90;;;;;;5008951;28;20246;-62
2021/08/26 12:21:36;;;;;;;1.90;0.60;;;18.40;99.90;;;;;;5006671;28;20800;-62
2021/08/26 12:24:05;;;;;;;1.43;0.60;;;18.50;99.90;;;;;;5008258;28;20252;-62
2021/08/26 12:26:38;;;;;;;1.30;0.67;;;18.30;99.90;;;;;;5014089;28;20242;-63
2021/08/26 12:29:07;;;;;;;2.10;0.60;;;18.40;99.90;;;;;;5010275;28;20251;-62
2021/08/26 12:31:42;;;;;;;3.33;0.80;;;18.30;99.90;;;;;;5006981;28;20238;-62
2021/08/26 12:34:13;;;;;;;1.60;0.60;;;18.40;99.90;;;;;;5011356;28;20312;-62
2021/08/26 12:36:43;;;;;;;1.93;0.97;;;18.30;99.90;;;;;;5008867;28;20245;-62
2021/08/26 12:39:22;;;;;;;1.83;0.60;;;18.30;99.90;;;;;;5008020;28;20760;-62
2021/08/26 12:42:04;;;;;;;3.17;0.80;;;18.30;99.90;;;;;;5002274;28;20241;-62
2021/08/26 12:44:34;;;;;;;1.63;0.57;;;18.30;99.90;;;;;;5003946;28;20318;-63
2021/08/26 12:47:06;;;;;;;2.77;0.60;;;18.40;99.90;;;;;;5002916;28;20239;-62
2021/08/26 12:49:41;;;;;;;3.17;0.90;;;18.50;99.90;;;;;;5003522;28;20333;-63
2021/08/26 12:52:10;;;;;;;2.20;0.80;;;18.80;99.90;;;;;;5012599;28;20280;-62
2021/08/26 12:54:41;;;;;;;7.00;0.73;;;18.80;99.90;;;;;;5002468;28;20959;-63
2021/08/26 12:57:21;;;;;;;1.87;0.73;;;19.00;99.90;;;;;;5008659;28;20348;-63
2021/08/26 12:59:50;;;;;;;2.53;0.70;;;18.90;99.90;;;;;;5018346;28;20242;-62